UEEE

Yakutsk Airport

Yakutsk, Russian Federation
TAF UEEE 212300Z 2200/2306 35003MPS 1500 BR NSC TEMPO 2200/2204 0400 FG VV004
Issued Valid From Valid To
Jan-21 @ 23:00 UTC
(an hour ago)
Jan-22 @ 00:00 UTC
(11 minutes ago)
Jan-23 @ 06:00 UTC
(-1 days ago)
Jan-22 @ 00:00 to Jan-23 @ 06:00
TAF UEEE 212300Z 2200/2306 35003MPS 1500 BR NSC
Wind Visibility Clouds Conditions
350° at 6 knots 1,497 meters
  • No significant clouds
  • Mist
Temporary Jan-22 @ 00:00 to Jan-22 @ 04:00
TEMPO 2200/2204 0400 FG VV004
Visibility Clouds Conditions
402 meters
  • Vertical visibility at 400' AGL
  • Fog
TAF UEEE 212300Z 2200/2306 35003MPS 1500 BR NSC TEMPO 2200/2204 0400 FG VV004
Issued Jan-21 @ 23:00 UTC
(an hour ago)
Valid From Jan-22 @ 00:00 UTC
(11 minutes ago)
Valid To Jan-23 @ 06:00 UTC
(-1 days ago)
Jan-22 @ 00:00 - Jan-23 @ 06:00
Wind Visibility
350° at 6 knots 1,497 meters
Clouds
  • No significant clouds
Conditions
  • Mist
Temporary Jan-22 @ 00:00 - Jan-22 @ 04:00
Clouds
  • Vertical visibility at 400' AGL
Conditions
  • Fog